sensor_id;sensor_type;location;lat;lon;timestamp;pressure;altitude;pressure_sealevel;temperature;humidity
28588;BME280;15787;49.662;10.162;2022-11-20T00:01:15;98667.47;;;3.06;100.00
28588;BME280;15787;49.662;10.162;2022-11-20T00:03:43;98663.16;;;3.12;100.00
28588;BME280;15787;49.662;10.162;2022-11-20T00:06:13;98665.53;;;3.10;100.00
28588;BME280;15787;49.662;10.162;2022-11-20T00:08:41;98669.78;;;2.86;100.00
28588;BME280;15787;49.662;10.162;2022-11-20T00:11:13;98667.84;;;3.01;100.00
28588;BME280;15787;49.662;10.162;2022-11-20T00:13:42;98674.59;;;3.14;100.00
28588;BME280;15787;49.662;10.162;2022-11-20T00:16:13;98671.03;;;2.99;100.00
28588;BME280;15787;49.662;10.162;2022-11-20T00:18:41;98674.47;;;2.72;100.00
28588;BME280;15787;49.662;10.162;2022-11-20T00:21:12;98671.13;;;2.34;100.00
28588;BME280;15787;49.662;10.162;2022-11-20T00:23:40;98664.38;;;2.21;100.00
28588;BME280;15787;49.662;10.162;2022-11-20T00:26:12;98663.03;;;2.66;100.00
28588;BME280;15787;49.662;10.162;2022-11-20T00:28:41;98666.66;;;2.84;100.00
28588;BME280;15787;49.662;10.162;2022-11-20T00:31:11;98655.41;;;2.42;100.00
28588;BME280;15787;49.662;10.162;2022-11-20T00:33:40;98665.06;;;2.87;100.00
28588;BME280;15787;49.662;10.162;2022-11-20T00:36:10;98660.75;;;2.93;100.00
28588;BME280;15787;49.662;10.162;2022-11-20T00:38:38;98661.56;;;2.97;100.00
28588;BME280;15787;49.662;10.162;2022-11-20T00:41:08;98660.03;;;3.17;100.00
28588;BME280;15787;49.662;10.162;2022-11-20T00:43:38;98654.47;;;3.06;100.00
28588;BME280;15787;49.662;10.162;2022-11-20T00:46:07;98656.63;;;2.41;100.00
28588;BME280;15787;49.662;10.162;2022-11-20T00:48:36;98647.31;;;2.81;100.00
28588;BME280;15787;49.662;10.162;2022-11-20T00:51:04;98656.84;;;3.01;100.00
28588;BME280;15787;49.662;10.162;2022-11-20T00:53:32;98664.31;;;2.97;100.00
28588;BME280;15787;49.662;10.162;2022-11-20T00:56:02;98657.94;;;2.79;100.00
28588;BME280;15787;49.662;10.162;2022-11-20T00:58:32;98656.25;;;2.49;100.00
28588;BME280;15787;49.662;10.162;2022-11-20T01:01:02;98666.63;;;2.88;100.00
28588;BME280;15787;49.662;10.162;2022-11-20T01:03:31;98663.16;;;3.05;100.00
28588;BME280;15787;49.662;10.162;2022-11-20T01:06:00;98665.06;;;2.87;100.00
28588;BME280;15787;49.662;10.162;2022-11-20T01:08:30;98666.66;;;2.84;100.00
28588;BME280;15787;49.662;10.162;2022-11-20T01:11:01;98659.16;;;2.88;100.00
28588;BME280;15787;49.662;10.162;2022-11-20T01:13:30;98657.22;;;2.92;100.00
28588;BME280;15787;49.662;10.162;2022-11-20T01:16:10;98666.69;;;3.09;100.00
28588;BME280;15787;49.662;10.162;2022-11-20T01:18:40;98669.88;;;3.07;100.00
28588;BME280;15787;49.662;10.162;2022-11-20T01:21:14;98672.59;;;3.04;100.00
28588;BME280;15787;49.662;10.162;2022-11-20T01:23:43;98671.28;;;2.70;100.00
28588;BME280;15787;49.662;10.162;2022-11-20T01:26:13;98669.44;;;3.05;100.00
28588;BME280;15787;49.662;10.162;2022-11-20T01:28:42;98662.75;;;3.06;100.00
28588;BME280;15787;49.662;10.162;2022-11-20T01:31:12;98654.38;;;2.71;100.00
28588;BME280;15787;49.662;10.162;2022-11-20T01:33:43;98656.44;;;3.06;100.00
28588;BME280;15787;49.662;10.162;2022-11-20T01:36:12;98650.13;;;3.05;100.00
28588;BME280;15787;49.662;10.162;2022-11-20T01:38:41;98658.44;;;3.16;100.00
28588;BME280;15787;49.662;10.162;2022-11-20T01:41:10;98650.00;;;2.56;100.00
28588;BME280;15787;49.662;10.162;2022-11-20T01:43:58;98665.72;;;2.48;100.00
28588;BME280;15787;49.662;10.162;2022-11-20T01:46:27;98659.94;;;2.85;100.00
28588;BME280;15787;49.662;10.162;2022-11-20T01:48:58;98662.34;;;2.97;100.00
28588;BME280;15787;49.662;10.162;2022-11-20T01:51:31;98649.13;;;2.38;100.00
28588;BME280;15787;49.662;10.162;2022-11-20T01:54:03;98651.09;;;2.37;100.00
28588;BME280;15787;49.662;10.162;2022-11-20T01:56:37;98653.91;;;2.55;100.00
28588;BME280;15787;49.662;10.162;2022-11-20T01:59:08;98651.59;;;2.61;100.00
28588;BME280;15787;49.662;10.162;2022-11-20T02:01:39;98641.06;;;2.98;100.00
28588;BME280;15787;49.662;10.162;2022-11-20T02:04:08;98643.03;;;3.01;100.00
28588;BME280;15787;49.662;10.162;2022-11-20T02:06:40;98642.19;;;2.83;100.00
28588;BME280;15787;49.662;10.162;2022-11-20T02:09:08;98649.25;;;2.66;100.00
28588;BME280;15787;49.662;10.162;2022-11-20T02:11:36;98630.63;;;2.38;100.00
28588;BME280;15787;49.662;10.162;2022-11-20T02:14:04;98642.25;;;2.90;100.00
28588;BME280;15787;49.662;10.162;2022-11-20T02:16:35;98643.81;;;2.94;100.00
28588;BME280;15787;49.662;10.162;2022-11-20T02:19:07;98644.19;;;2.93;100.00
28588;BME280;15787;49.662;10.162;2022-11-20T02:21:40;98644.19;;;2.93;100.00
28588;BME280;15787;49.662;10.162;2022-11-20T02:24:14;98646.03;;;2.57;100.00
28588;BME280;15787;49.662;10.162;2022-11-20T02:26:46;98656.72;;;2.66;100.00
28588;BME280;15787;49.662;10.162;2022-11-20T02:29:19;98655.19;;;2.79;100.00
28588;BME280;15787;49.662;10.162;2022-11-20T02:31:51;98643.38;;;2.85;100.00
28588;BME280;15787;49.662;10.162;2022-11-20T02:34:19;98641.03;;;2.84;100.00
28588;BME280;15787;49.662;10.162;2022-11-20T02:36:49;98640.66;;;2.96;100.00
28588;BME280;15787;49.662;10.162;2022-11-20T02:39:19;98650.50;;;2.90;100.00
28588;BME280;15787;49.662;10.162;2022-11-20T02:41:48;98645.00;;;2.90;100.00
28588;BME280;15787;49.662;10.162;2022-11-20T02:44:16;98649.66;;;2.75;100.00
28588;BME280;15787;49.662;10.162;2022-11-20T02:46:44;98644.09;;;2.61;100.00
28588;BME280;15787;49.662;10.162;2022-11-20T02:49:12;98647.69;;;2.76;100.00
28588;BME280;15787;49.662;10.162;2022-11-20T02:51:39;98651.25;;;2.80;100.00
28588;BME280;15787;49.662;10.162;2022-11-20T02:54:07;98643.78;;;2.84;100.00
28588;BME280;15787;49.662;10.162;2022-11-20T02:56:38;98641.41;;;2.82;100.00
28588;BME280;15787;49.662;10.162;2022-11-20T02:59:07;98639.03;;;2.77;100.00
28588;BME280;15787;49.662;10.162;2022-11-20T03:01:35;98642.56;;;2.71;100.00
28588;BME280;15787;49.662;10.162;2022-11-20T03:04:03;98634.94;;;2.36;100.00
28588;BME280;15787;49.662;10.162;2022-11-20T03:06:31;98631.91;;;2.66;100.00
28588;BME280;15787;49.662;10.162;2022-11-20T03:08:59;98639.38;;;2.65;100.00
28588;BME280;15787;49.662;10.162;2022-11-20T03:11:28;98630.75;;;2.67;100.00
28588;BME280;15787;49.662;10.162;2022-11-20T03:13:57;98633.91;;;2.69;100.00
28588;BME280;15787;49.662;10.162;2022-11-20T03:16:25;98623.63;;;2.59;100.00
28588;BME280;15787;49.662;10.162;2022-11-20T03:18:56;98627.56;;;2.54;100.00
28588;BME280;15787;49.662;10.162;2022-11-20T03:21:23;98627.19;;;2.59;100.00
28588;BME280;15787;49.662;10.162;2022-11-20T03:23:53;98627.91;;;2.45;100.00
28588;BME280;15787;49.662;10.162;2022-11-20T03:29:03;98625.56;;;2.54;100.00
28588;BME280;15787;49.662;10.162;2022-11-20T03:31:34;98619.19;;;2.33;100.00
28588;BME280;15787;49.662;10.162;2022-11-20T03:34:03;98618.75;;;2.27;100.00
28588;BME280;15787;49.662;10.162;2022-11-20T03:36:32;98612.03;;;2.21;100.00
28588;BME280;15787;49.662;10.162;2022-11-20T03:39:00;98614.78;;;2.21;100.00
28588;BME280;15787;49.662;10.162;2022-11-20T03:41:30;98617.66;;;2.39;100.00
28588;BME280;15787;49.662;10.162;2022-11-20T03:43:59;98624.41;;;2.63;100.00
28588;BME280;15787;49.662;10.162;2022-11-20T03:46:29;98612.97;;;2.53;100.00
28588;BME280;15787;49.662;10.162;2022-11-20T03:48:57;98620.84;;;2.51;100.00
28588;BME280;15787;49.662;10.162;2022-11-20T03:51:26;98619.59;;;2.42;100.00
28588;BME280;15787;49.662;10.162;2022-11-20T03:53:57;98615.59;;;2.25;100.00
28588;BME280;15787;49.662;10.162;2022-11-20T03:56:27;98613.69;;;2.40;100.00
28588;BME280;15787;49.662;10.162;2022-11-20T03:58:55;98618.13;;;2.59;100.00
28588;BME280;15787;49.662;10.162;2022-11-20T04:01:25;98619.66;;;2.49;100.00
28588;BME280;15787;49.662;10.162;2022-11-20T04:03:56;98623.22;;;2.60;100.00
28588;BME280;15787;49.662;10.162;2022-11-20T04:06:25;98612.22;;;2.57;100.00
28588;BME280;15787;49.662;10.162;2022-11-20T04:08:54;98619.97;;;2.33;100.00
28588;BME280;15787;49.662;10.162;2022-11-20T04:11:23;98611.34;;;2.42;100.00
28588;BME280;15787;49.662;10.162;2022-11-20T04:13:53;98610.97;;;2.47;100.00
28588;BME280;15787;49.662;10.162;2022-11-20T04:16:23;98604.72;;;2.61;100.00
28588;BME280;15787;49.662;10.162;2022-11-20T04:18:52;98599.91;;;2.33;100.00
28588;BME280;15787;49.662;10.162;2022-11-20T04:21:22;98601.16;;;2.53;100.00
28588;BME280;15787;49.662;10.162;2022-11-20T04:23:51;98601.16;;;2.53;100.00
28588;BME280;15787;49.662;10.162;2022-11-20T04:26:21;98594.06;;;2.52;100.00
28588;BME280;15787;49.662;10.162;2022-11-20T04:28:50;98598.00;;;2.51;100.00
28588;BME280;15787;49.662;10.162;2022-11-20T04:31:19;98593.91;;;2.13;100.00
28588;BME280;15787;49.662;10.162;2022-11-20T04:33:47;98592.72;;;2.11;100.00
28588;BME280;15787;49.662;10.162;2022-11-20T04:36:20;98591.72;;;2.54;100.00
28588;BME280;15787;49.662;10.162;2022-11-20T04:38:51;98592.88;;;2.53;100.00
28588;BME280;15787;49.662;10.162;2022-11-20T04:41:24;98592.84;;;2.42;100.00
28588;BME280;15787;49.662;10.162;2022-11-20T04:43:55;98590.88;;;2.39;100.00
28588;BME280;15787;49.662;10.162;2022-11-20T04:46:27;98585.69;;;2.24;100.00
28588;BME280;15787;49.662;10.162;2022-11-20T04:48:55;98585.41;;;2.46;100.00
28588;BME280;15787;49.662;10.162;2022-11-20T04:51:23;98590.16;;;2.64;100.00
28588;BME280;15787;49.662;10.162;2022-11-20T04:53:53;98570.88;;;2.71;100.00
28588;BME280;15787;49.662;10.162;2022-11-20T04:56:21;98574.41;;;2.61;100.00
28588;BME280;15787;49.662;10.162;2022-11-20T04:58:48;98573.91;;;2.30;100.00
28588;BME280;15787;49.662;10.162;2022-11-20T05:01:18;98574.44;;;2.64;100.00
28588;BME280;15787;49.662;10.162;2022-11-20T05:03:47;98568.53;;;2.69;100.00
28588;BME280;15787;49.662;10.162;2022-11-20T05:06:17;98579.94;;;2.71;100.00
28588;BME280;15787;49.662;10.162;2022-11-20T05:08:45;98577.97;;;2.68;100.00
28588;BME280;15787;49.662;10.162;2022-11-20T05:11:16;98578.31;;;2.60;100.00
28588;BME280;15787;49.662;10.162;2022-11-20T05:13:44;98579.97;;;2.78;100.00
28588;BME280;15787;49.662;10.162;2022-11-20T05:16:14;98582.06;;;2.06;100.00
28588;BME280;15787;49.662;10.162;2022-11-20T05:18:43;98581.59;;;1.89;100.00
28588;BME280;15787;49.662;10.162;2022-11-20T05:21:11;98582.09;;;2.16;100.00
28588;BME280;15787;49.662;10.162;2022-11-20T05:23:39;98579.84;;;2.36;100.00
28588;BME280;15787;49.662;10.162;2022-11-20T05:26:11;98580.28;;;2.41;100.00
28588;BME280;15787;49.662;10.162;2022-11-20T05:28:41;98588.97;;;2.61;100.00
28588;BME280;15787;49.662;10.162;2022-11-20T05:31:10;98591.34;;;2.59;100.00
28588;BME280;15787;49.662;10.162;2022-11-20T05:33:39;98586.91;;;2.30;100.00
28588;BME280;15787;49.662;10.162;2022-11-20T05:36:09;98583.16;;;1.87;100.00
28588;BME280;15787;49.662;10.162;2022-11-20T05:38:37;98577.50;;;2.38;100.00
28588;BME280;15787;49.662;10.162;2022-11-20T05:41:06;98581.56;;;1.86;100.00
28588;BME280;15787;49.662;10.162;2022-11-20T05:43:35;98564.75;;;2.05;100.00
28588;BME280;15787;49.662;10.162;2022-11-20T05:46:06;98579.47;;;2.41;100.00
28588;BME280;15787;49.662;10.162;2022-11-20T05:48:35;98569.50;;;2.12;100.00
28588;BME280;15787;49.662;10.162;2022-11-20T05:51:05;98566.25;;;1.92;100.00
28588;BME280;15787;49.662;10.162;2022-11-20T05:53:34;98565.88;;;1.90;100.00
28588;BME280;15787;49.662;10.162;2022-11-20T05:56:05;98564.78;;;2.12;100.00
28588;BME280;15787;49.662;10.162;2022-11-20T05:58:34;98574.31;;;2.39;100.00
28588;BME280;15787;49.662;10.162;2022-11-20T06:01:08;98566.44;;;2.34;100.00
28588;BME280;15787;49.662;10.162;2022-11-20T06:03:37;98568.44;;;2.41;100.00
28588;BME280;15787;49.662;10.162;2022-11-20T06:06:06;98567.19;;;2.24;100.00
28588;BME280;15787;49.662;10.162;2022-11-20T06:08:34;98571.59;;;2.36;100.00
28588;BME280;15787;49.662;10.162;2022-11-20T06:11:06;98556.13;;;2.14;100.00
28588;BME280;15787;49.662;10.162;2022-11-20T06:13:35;98558.13;;;2.13;100.00
28588;BME280;15787;49.662;10.162;2022-11-20T06:16:09;98565.03;;;1.86;100.00
28588;BME280;15787;49.662;10.162;2022-11-20T06:18:38;98557.34;;;2.27;100.00
28588;BME280;15787;49.662;10.162;2022-11-20T06:21:08;98560.50;;;2.18;100.00
28588;BME280;15787;49.662;10.162;2022-11-20T06:23:37;98561.25;;;2.19;100.00
28588;BME280;15787;49.662;10.162;2022-11-20T06:26:07;98564.50;;;2.38;100.00
28588;BME280;15787;49.662;10.162;2022-11-20T06:28:35;98559.22;;;1.98;100.00
28588;BME280;15787;49.662;10.162;2022-11-20T06:31:03;98559.31;;;2.26;100.00
28588;BME280;15787;49.662;10.162;2022-11-20T06:33:33;98565.25;;;2.28;100.00
28588;BME280;15787;49.662;10.162;2022-11-20T06:36:02;98570.25;;;2.05;100.00
28588;BME280;15787;49.662;10.162;2022-11-20T06:38:36;98571.09;;;2.16;100.00
28588;BME280;15787;49.662;10.162;2022-11-20T06:41:05;98564.75;;;2.05;100.00
28588;BME280;15787;49.662;10.162;2022-11-20T06:43:33;98567.63;;;2.30;100.00
28588;BME280;15787;49.662;10.162;2022-11-20T06:46:01;98564.44;;;2.24;100.00
28588;BME280;15787;49.662;10.162;2022-11-20T06:48:29;98575.84;;;2.26;100.00
28588;BME280;15787;49.662;10.162;2022-11-20T06:50:59;98578.56;;;2.19;100.00
28588;BME280;15787;49.662;10.162;2022-11-20T06:53:27;98577.84;;;2.26;100.00
28588;BME280;15787;49.662;10.162;2022-11-20T06:55:56;98574.25;;;2.18;100.00
28588;BME280;15787;49.662;10.162;2022-11-20T06:58:26;98582.09;;;2.13;100.00
28588;BME280;15787;49.662;10.162;2022-11-20T07:00:54;98584.84;;;2.13;100.00
28588;BME280;15787;49.662;10.162;2022-11-20T07:03:25;98581.16;;;1.84;100.00
28588;BME280;15787;49.662;10.162;2022-11-20T07:05:54;98587.50;;;1.88;100.00
28588;BME280;15787;49.662;10.162;2022-11-20T07:08:23;98576.63;;;2.20;100.00
28588;BME280;15787;49.662;10.162;2022-11-20T07:10:52;98581.28;;;2.05;100.00
28588;BME280;15787;49.662;10.162;2022-11-20T07:13:20;98593.16;;;2.27;100.00
28588;BME280;15787;49.662;10.162;2022-11-20T07:15:47;98586.47;;;2.24;100.00
28588;BME280;15787;49.662;10.162;2022-11-20T07:18:15;98587.66;;;2.23;100.00
28588;BME280;15787;49.662;10.162;2022-11-20T07:20:43;98591.25;;;2.31;100.00
28588;BME280;15787;49.662;10.162;2022-11-20T07:23:11;98589.69;;;2.33;100.00
28588;BME280;15787;49.662;10.162;2022-11-20T07:25:40;98593.94;;;2.20;100.00
28588;BME280;15787;49.662;10.162;2022-11-20T07:28:08;98589.31;;;2.38;100.00
28588;BME280;15787;49.662;10.162;2022-11-20T07:30:37;98587.34;;;2.39;100.00
28588;BME280;15787;49.662;10.162;2022-11-20T07:33:05;98589.34;;;2.49;100.00
28588;BME280;15787;49.662;10.162;2022-11-20T07:35:33;98588.94;;;2.50;100.00
28588;BME280;15787;49.662;10.162;2022-11-20T07:38:02;98581.88;;;2.57;100.00
28588;BME280;15787;49.662;10.162;2022-11-20T07:40:30;98576.31;;;2.42;100.00
28588;BME280;15787;49.662;10.162;2022-11-20T07:42:59;98571.94;;;2.34;100.00
28588;BME280;15787;49.662;10.162;2022-11-20T07:45:27;98573.56;;;2.39;100.00
28588;BME280;15787;49.662;10.162;2022-11-20T07:47:55;98574.44;;;2.64;100.00
28588;BME280;15787;49.662;10.162;2022-11-20T07:50:23;98566.16;;;2.68;100.00
28588;BME280;15787;49.662;10.162;2022-11-20T07:52:50;98568.50;;;2.59;100.00
28588;BME280;15787;49.662;10.162;2022-11-20T07:55:18;98568.13;;;2.67;100.00
28588;BME280;15787;49.662;10.162;2022-11-20T07:57:54;98574.38;;;2.50;100.00
28588;BME280;15787;49.662;10.162;2022-11-20T08:00:23;98574.00;;;2.59;100.00
28588;BME280;15787;49.662;10.162;2022-11-20T08:02:51;98570.53;;;2.79;100.00
28588;BME280;15787;49.662;10.162;2022-11-20T08:05:20;98562.09;;;2.30;100.00
28588;BME280;15787;49.662;10.162;2022-11-20T08:07:48;98568.13;;;2.71;100.00
28588;BME280;15787;49.662;10.162;2022-11-20T08:10:16;98567.66;;;2.47;100.00
28588;BME280;15787;49.662;10.162;2022-11-20T08:12:45;98569.34;;;2.91;100.00
28588;BME280;15787;49.662;10.162;2022-11-20T08:15:32;98583.47;;;2.65;100.00
28588;BME280;15787;49.662;10.162;2022-11-20T08:18:01;98585.47;;;2.64;100.00
28588;BME280;15787;49.662;10.162;2022-11-20T08:20:49;98585.00;;;2.55;100.00
28588;BME280;15787;49.662;10.162;2022-11-20T08:23:17;98581.94;;;2.78;100.00
28588;BME280;15787;49.662;10.162;2022-11-20T08:25:49;98579.56;;;2.76;100.00
28588;BME280;15787;49.662;10.162;2022-11-20T08:28:18;98581.97;;;2.95;100.00
28588;BME280;15787;49.662;10.162;2022-11-20T08:30:49;98578.41;;;2.81;100.00
28588;BME280;15787;49.662;10.162;2022-11-20T08:33:17;98590.22;;;2.88;100.00
28588;BME280;15787;49.662;10.162;2022-11-20T08:35:45;98593.75;;;2.78;100.00
28588;BME280;15787;49.662;10.162;2022-11-20T08:38:13;98595.38;;;2.90;100.00
28588;BME280;15787;49.662;10.162;2022-11-20T08:40:41;98604.75;;;2.75;100.00
28588;BME280;15787;49.662;10.162;2022-11-20T08:43:29;98600.44;;;2.67;100.00
28588;BME280;15787;49.662;10.162;2022-11-20T08:45:58;98604.25;;;2.44;100.00
28588;BME280;15787;49.662;10.162;2022-11-20T08:48:26;98606.69;;;2.57;100.00
28588;BME280;15787;49.662;10.162;2022-11-20T08:50:57;98604.75;;;2.71;100.00
28588;BME280;15787;49.662;10.162;2022-11-20T08:53:26;98595.69;;;2.67;100.00
28588;BME280;15787;49.662;10.162;2022-11-20T08:55:54;98590.19;;;2.71;100.00
28588;BME280;15787;49.662;10.162;2022-11-20T08:58:22;98601.56;;;2.55;100.00
28588;BME280;15787;49.662;10.162;2022-11-20T09:00:51;98596.03;;;2.51;100.00
28588;BME280;15787;49.662;10.162;2022-11-20T09:03:20;98587.84;;;2.76;100.00
28588;BME280;15787;49.662;10.162;2022-11-20T09:05:56;98581.50;;;2.58;100.00
28588;BME280;15787;49.662;10.162;2022-11-20T09:08:24;98585.53;;;2.99;100.00
28588;BME280;15787;49.662;10.162;2022-11-20T09:10:53;98582.78;;;3.17;100.00
28588;BME280;15787;49.662;10.162;2022-11-20T09:13:21;98581.56;;;2.79;100.00
28588;BME280;15787;49.662;10.162;2022-11-20T09:15:53;98572.91;;;3.09;100.00
28588;BME280;15787;49.662;10.162;2022-11-20T09:18:22;98572.91;;;3.05;100.00
28588;BME280;15787;49.662;10.162;2022-11-20T09:20:50;98572.53;;;3.07;100.00
28588;BME280;15787;49.662;10.162;2022-11-20T09:23:18;98574.50;;;3.31;100.00
28588;BME280;15787;49.662;10.162;2022-11-20T09:25:46;98571.75;;;3.24;100.00
28588;BME280;15787;49.662;10.162;2022-11-20T09:28:14;98581.59;;;3.39;100.00
28588;BME280;15787;49.662;10.162;2022-11-20T09:30:42;98574.91;;;3.47;100.00
28588;BME280;15787;49.662;10.162;2022-11-20T09:33:10;98575.69;;;3.37;100.00
28588;BME280;15787;49.662;10.162;2022-11-20T09:35:39;98576.47;;;3.41;100.00
28588;BME280;15787;49.662;10.162;2022-11-20T09:38:08;98574.91;;;3.51;100.00
28588;BME280;15787;49.662;10.162;2022-11-20T09:40:40;98579.25;;;3.27;100.00
28588;BME280;15787;49.662;10.162;2022-11-20T09:43:15;98585.16;;;3.40;100.00
28588;BME280;15787;49.662;10.162;2022-11-20T09:46:02;98578.44;;;3.48;100.00
28588;BME280;15787;49.662;10.162;2022-11-20T09:51:34;98576.88;;;3.15;100.00
28588;BME280;15787;49.662;10.162;2022-11-20T09:54:13;98571.38;;;3.15;100.00
28588;BME280;15787;49.662;10.162;2022-11-20T09:56:44;98576.44;;;3.59;100.00
28588;BME280;15787;49.662;10.162;2022-11-20T09:59:23;98608.03;;;3.40;100.00
28588;BME280;15787;49.662;10.162;2022-11-20T10:01:54;98598.47;;;2.74;100.00
28588;BME280;15787;49.662;10.162;2022-11-20T10:04:24;98594.88;;;2.56;100.00
28588;BME280;15787;49.662;10.162;2022-11-20T10:07:00;98602.88;;;3.21;100.00
28588;BME280;15787;49.662;10.162;2022-11-20T10:09:51;98613.50;;;3.01;100.00
28588;BME280;15787;49.662;10.162;2022-11-20T10:12:27;98627.28;;;3.01;100.00
28588;BME280;15787;49.662;10.162;2022-11-20T10:15:06;98625.22;;;2.63;100.00
28588;BME280;15787;49.662;10.162;2022-11-20T10:17:54;98609.84;;;2.66;100.00
28588;BME280;15787;49.662;10.162;2022-11-20T10:20:29;98601.28;;;2.92;100.00
28588;BME280;15787;49.662;10.162;2022-11-20T10:23:21;98607.50;;;2.75;100.00
28588;BME280;15787;49.662;10.162;2022-11-20T10:26:00;98605.16;;;2.80;100.00
28588;BME280;15787;49.662;10.162;2022-11-20T10:28:39;98593.41;;;3.04;100.00
28588;BME280;15787;49.662;10.162;2022-11-20T10:31:29;98586.72;;;3.34;100.00
28588;BME280;15787;49.662;10.162;2022-11-20T10:34:03;98589.47;;;3.23;100.00
28588;BME280;15787;49.662;10.162;2022-11-20T10:36:43;98580.41;;;3.61;100.00
28588;BME280;15787;49.662;10.162;2022-11-20T10:39:17;98588.69;;;3.26;100.00
28588;BME280;15787;49.662;10.162;2022-11-20T10:41:50;98591.03;;;3.38;100.00
28588;BME280;15787;49.662;10.162;2022-11-20T10:44:21;98600.13;;;3.63;100.00
28588;BME280;15787;49.662;10.162;2022-11-20T10:47:03;98585.94;;;3.58;100.00
28588;BME280;15787;49.662;10.162;2022-11-20T10:49:33;98582.78;;;3.45;100.00
28588;BME280;15787;49.662;10.162;2022-11-20T10:52:10;98576.78;;;3.93;100.00
28588;BME280;15787;49.662;10.162;2022-11-20T10:54:47;98578.81;;;3.67;100.00
28588;BME280;15787;49.662;10.162;2022-11-20T10:57:25;98573.22;;;4.06;100.00
28588;BME280;15787;49.662;10.162;2022-11-20T11:00:04;98578.63;;;4.38;100.00
28588;BME280;15787;49.662;10.162;2022-11-20T11:02:35;98579.47;;;4.21;100.00
28588;BME280;15787;49.662;10.162;2022-11-20T11:05:12;98561.69;;;4.25;100.00
28588;BME280;15787;49.662;10.162;2022-11-20T11:07:45;98563.31;;;4.16;100.00
28588;BME280;15787;49.662;10.162;2022-11-20T11:10:16;98560.91;;;4.32;100.00
28588;BME280;15787;49.662;10.162;2022-11-20T11:12:46;98559.72;;;4.26;100.00
28588;BME280;15787;49.662;10.162;2022-11-20T11:15:26;98558.16;;;4.18;100.00
28588;BME280;15787;49.662;10.162;2022-11-20T11:17:54;98553.78;;;4.31;100.00
28588;BME280;15787;49.662;10.162;2022-11-20T11:20:24;98548.25;;;4.34;100.00
28588;BME280;15787;49.662;10.162;2022-11-20T11:22:53;98545.81;;;4.43;100.00
28588;BME280;15787;49.662;10.162;2022-11-20T11:25:27;98553.44;;;4.18;100.00
28588;BME280;15787;49.662;10.162;2022-11-20T11:27:57;98553.44;;;4.22;100.00
28588;BME280;15787;49.662;10.162;2022-11-20T11:30:27;98548.66;;;4.26;100.00
28588;BME280;15787;49.662;10.162;2022-11-20T11:33:06;98544.00;;;4.09;100.00
28588;BME280;15787;49.662;10.162;2022-11-20T11:35:44;98540.03;;;4.17;100.00
28588;BME280;15787;49.662;10.162;2022-11-20T11:38:21;98535.69;;;4.16;100.00
28588;BME280;15787;49.662;10.162;2022-11-20T11:40:53;98534.84;;;4.22;100.00
28588;BME280;15787;49.662;10.162;2022-11-20T11:43:23;98532.50;;;4.24;100.00
28588;BME280;15787;49.662;10.162;2022-11-20T11:46:24;98536.84;;;4.22;100.00
28588;BME280;15787;49.662;10.162;2022-11-20T11:48:57;98535.59;;;4.33;100.00
28588;BME280;15787;49.662;10.162;2022-11-20T11:51:31;98525.63;;;4.57;100.00
28588;BME280;15787;49.662;10.162;2022-11-20T11:54:09;98519.31;;;4.57;100.00
28588;BME280;15787;49.662;10.162;2022-11-20T11:56:39;98520.94;;;4.47;100.00
28588;BME280;15787;49.662;10.162;2022-11-20T11:59:12;98513.84;;;4.42;100.00
28588;BME280;15787;49.662;10.162;2022-11-20T12:01:47;98517.31;;;4.57;100.00
28588;BME280;15787;49.662;10.162;2022-11-20T12:04:23;98522.88;;;4.50;100.00
28588;BME280;15787;49.662;10.162;2022-11-20T12:07:00;98523.34;;;4.38;100.00
28588;BME280;15787;49.662;10.162;2022-11-20T12:09:53;98515.09;;;4.31;100.00
28588;BME280;15787;49.662;10.162;2022-11-20T12:12:27;98519.03;;;4.33;100.00
28588;BME280;15787;49.662;10.162;2022-11-20T12:14:58;98513.88;;;4.39;100.00
28588;BME280;15787;49.662;10.162;2022-11-20T12:17:26;98519.81;;;4.30;100.00
28588;BME280;15787;49.662;10.162;2022-11-20T12:19:54;98514.63;;;4.43;100.00
28588;BME280;15787;49.662;10.162;2022-11-20T12:22:29;98506.22;;;4.61;100.00
28588;BME280;15787;49.662;10.162;2022-11-20T12:25:04;98505.06;;;4.58;100.00
28588;BME280;15787;49.662;10.162;2022-11-20T12:27:47;98508.72;;;4.44;100.00
28588;BME280;15787;49.662;10.162;2022-11-20T12:30:21;98506.66;;;4.59;100.00
28588;BME280;15787;49.662;10.162;2022-11-20T12:33:08;98502.34;;;4.51;100.00
28588;BME280;15787;49.662;10.162;2022-11-20T12:35:56;98501.25;;;4.34;100.00
28588;BME280;15787;49.662;10.162;2022-11-20T12:41:43;98495.56;;;4.63;100.00
28588;BME280;15787;49.662;10.162;2022-11-20T12:44:47;98509.84;;;4.54;100.00
28588;BME280;15787;49.662;10.162;2022-11-20T12:47:50;98502.69;;;4.60;100.00
28588;BME280;15787;49.662;10.162;2022-11-20T12:50:28;98518.88;;;4.58;100.00
28588;BME280;15787;49.662;10.162;2022-11-20T12:53:39;98513.41;;;4.51;100.00
28588;BME280;15787;49.662;10.162;2022-11-20T12:56:20;98512.59;;;4.51;100.00
28588;BME280;15787;49.662;10.162;2022-11-20T12:59:02;98501.53;;;4.54;100.00
28588;BME280;15787;49.662;10.162;2022-11-20T13:01:40;98501.50;;;4.58;100.00
28588;BME280;15787;49.662;10.162;2022-11-20T13:04:22;98481.69;;;4.70;100.00
28588;BME280;15787;49.662;10.162;2022-11-20T13:06:53;98500.25;;;4.69;100.00
28588;BME280;15787;49.662;10.162;2022-11-20T13:09:22;98497.19;;;4.53;100.00
28588;BME280;15787;49.662;10.162;2022-11-20T13:12:01;98490.00;;;4.66;100.00
28588;BME280;15787;49.662;10.162;2022-11-20T13:14:34;98485.25;;;4.70;100.00
28588;BME280;15787;49.662;10.162;2022-11-20T13:17:11;98490.38;;;4.68;100.00
28588;BME280;15787;49.662;10.162;2022-11-20T13:19:39;98487.28;;;4.63;100.00
28588;BME280;15787;49.662;10.162;2022-11-20T13:22:08;98497.97;;;4.57;100.00